createdAt,value
2018-09-24T00:01:09.621Z,96119.30
2018-09-24T00:03:38.801Z,96144.79
2018-09-24T00:06:08.182Z,96143.80
2018-09-24T00:08:37.345Z,96142.78
2018-09-24T00:11:06.908Z,96142.81
2018-09-24T00:13:42.638Z,96152.09
2018-09-24T00:16:11.822Z,96141.30
2018-09-24T00:18:40.993Z,96154.64
2018-09-24T00:21:10.157Z,96156.90
2018-09-24T00:23:39.383Z,96146.59
2018-09-24T00:26:08.538Z,96158.17
2018-09-24T00:28:37.716Z,96156.86
2018-09-24T00:31:06.919Z,96151.70
2018-09-24T00:33:36.077Z,96139.30
2018-09-24T00:36:05.315Z,96139.86
2018-09-24T00:38:34.467Z,96136.41
2018-09-24T00:41:03.625Z,96153.00
2018-09-24T00:43:32.837Z,96151.66
2018-09-24T00:46:02.008Z,96143.09
2018-09-24T00:48:31.153Z,96150.05
2018-09-24T00:51:00.317Z,96150.17
2018-09-24T00:53:29.485Z,96156.44
2018-09-24T00:55:58.699Z,96169.34
2018-09-24T00:58:27.872Z,96176.44
2018-09-24T01:00:57.094Z,96159.71
2018-09-24T01:03:26.255Z,96174.59
2018-09-24T01:05:55.431Z,96178.14
2018-09-24T01:08:24.598Z,96191.69
2018-09-24T01:10:53.753Z,96204.61
2018-09-24T01:13:23.040Z,96210.88
2018-09-24T01:15:52.212Z,96219.83
2018-09-24T01:18:21.360Z,96225.44
2018-09-24T01:20:50.533Z,96222.16
2018-09-24T01:23:19.715Z,96220.57
2018-09-24T01:25:48.893Z,96233.12
2018-09-24T01:28:18.047Z,96231.10
2018-09-24T01:30:47.189Z,96232.34
2018-09-24T01:33:16.356Z,96237.65
2018-09-24T01:35:45.553Z,96240.94
2018-09-24T01:38:14.714Z,96238.63
2018-09-24T01:40:43.953Z,96243.41
2018-09-24T01:43:13.126Z,96242.73
2018-09-24T01:45:42.297Z,96243.16
2018-09-24T01:48:11.661Z,96252.17
2018-09-24T01:50:40.826Z,96262.77
2018-09-24T01:53:10.057Z,96261.98
2018-09-24T01:55:39.265Z,96265.73
2018-09-24T01:58:11.372Z,96268.88
2018-09-24T02:00:40.530Z,96273.86
2018-09-24T02:03:09.720Z,96283.05
2018-09-24T02:05:38.857Z,96286.81
2018-09-24T02:08:08.076Z,96291.63
2018-09-24T02:10:37.253Z,96297.69
2018-09-24T02:13:06.681Z,96299.72
2018-09-24T02:15:35.847Z,96307.36
2018-09-24T02:18:05.105Z,96309.66
2018-09-24T02:20:34.757Z,96317.11
2018-09-24T02:23:03.917Z,96317.43
2018-09-24T02:25:33.339Z,96318.83
2018-09-24T02:28:02.510Z,96329.52
2018-09-24T02:30:31.690Z,96323.17
2018-09-24T02:33:01.672Z,96330.81
2018-09-24T02:35:30.853Z,96334.82
2018-09-24T02:38:00.013Z,96333.40
2018-09-24T02:40:29.201Z,96339.78
2018-09-24T02:42:58.415Z,96340.23
2018-09-24T02:45:27.564Z,96348.77
2018-09-24T02:47:56.750Z,96360.80
2018-09-24T02:50:36.116Z,96358.97
2018-09-24T02:53:05.839Z,96363.69
2018-09-24T02:55:34.987Z,96372.31
2018-09-24T02:58:04.138Z,96374.68
2018-09-24T03:00:33.319Z,96380.13
2018-09-24T03:03:09.126Z,96383.44
2018-09-24T03:05:38.329Z,96388.84
2018-09-24T03:08:11.083Z,96389.30
2018-09-24T03:10:40.539Z,96397.87
2018-09-24T03:13:09.812Z,96403.79
2018-09-24T03:15:41.077Z,96416.46
2018-09-24T03:18:10.877Z,96424.66
2018-09-24T03:20:41.333Z,96420.28
2018-09-24T03:23:10.768Z,96428.72
2018-09-24T03:25:40.405Z,96426.96
2018-09-24T03:28:09.574Z,96428.77
2018-09-24T03:30:40.743Z,96421.88
2018-09-24T03:33:10.044Z,96419.53
2018-09-24T03:35:39.241Z,96420.08
2018-09-24T03:38:08.499Z,96422.44
2018-09-24T03:40:37.650Z,96428.75
2018-09-24T03:43:06.852Z,96429.64
2018-09-24T03:45:36.005Z,96435.22
2018-09-24T03:48:05.380Z,96444.98
2018-09-24T03:50:34.517Z,96451.01
2018-09-24T03:53:03.661Z,96445.11
2018-09-24T03:55:32.829Z,96443.02
2018-09-24T03:58:01.981Z,96440.16
2018-09-24T04:00:31.184Z,96447.31
2018-09-24T04:03:00.329Z,96442.44
2018-09-24T04:05:34.953Z,96449.41
2018-09-24T04:08:09.323Z,96447.45
2018-09-24T04:10:43.763Z,96469.08
2018-09-24T04:13:18.197Z,96487.39
2018-09-24T04:15:52.705Z,96489.84
2018-09-24T04:18:27.087Z,96500.17
2018-09-24T04:21:01.626Z,96514.59
2018-09-24T04:23:36.251Z,96519.83
2018-09-24T04:26:10.820Z,96526.88
2018-09-24T04:28:45.224Z,96535.28
2018-09-24T04:31:19.683Z,96539.40
2018-09-24T04:33:54.233Z,96548.61
2018-09-24T04:36:28.753Z,96555.36
2018-09-24T04:39:03.550Z,96545.63
2018-09-24T04:41:38.548Z,96549.71
2018-09-24T04:44:13.549Z,96568.84
2018-09-24T04:46:48.349Z,96561.02
2018-09-24T04:49:22.939Z,96571.98
2018-09-24T04:51:57.651Z,96577.20
2018-09-24T04:54:32.330Z,96590.92
2018-09-24T04:57:07.276Z,96587.09
2018-09-24T04:59:42.271Z,96592.36
2018-09-24T05:02:16.895Z,96594.98
2018-09-24T05:04:51.383Z,96609.42
2018-09-24T05:07:26.113Z,96613.84
2018-09-24T05:10:00.975Z,96614.70
2018-09-24T05:12:36.336Z,96612.56
2018-09-24T05:15:13.393Z,96622.09
2018-09-24T05:17:48.157Z,96626.92
2018-09-24T05:20:22.749Z,96630.52
2018-09-24T05:22:57.490Z,96639.45
2018-09-24T05:25:32.357Z,96642.44
2018-09-24T05:28:07.625Z,96656.23
2018-09-24T05:30:42.541Z,96658.75
2018-09-24T05:33:17.233Z,96673.01
2018-09-24T05:35:51.828Z,96670.87
2018-09-24T05:38:26.221Z,96674.26
2018-09-24T05:41:01.223Z,96673.88
2018-09-24T05:43:36.958Z,96677.87
2018-09-24T05:46:12.414Z,96687.21
2018-09-24T05:48:46.830Z,96689.25
2018-09-24T05:51:21.635Z,96688.99
2018-09-24T05:53:56.316Z,96697.81
2018-09-24T05:56:31.185Z,96705.23
2018-09-24T05:59:06.571Z,96715.30
2018-09-24T06:01:41.702Z,96723.06
2018-09-24T06:04:16.292Z,96721.95
2018-09-24T06:06:51.015Z,96725.23
2018-09-24T06:09:25.600Z,96729.84
2018-09-24T06:12:00.525Z,96739.63
2018-09-24T06:14:36.010Z,96740.45
2018-09-24T06:17:10.985Z,96746.34
2018-09-24T06:19:45.694Z,96752.20
2018-09-24T06:22:20.490Z,96760.58
2018-09-24T06:24:55.177Z,96763.02
2018-09-24T06:27:30.223Z,96776.61
2018-09-24T06:30:05.607Z,96778.19
2018-09-24T06:32:40.726Z,96783.71
2018-09-24T06:35:15.285Z,96786.76
2018-09-24T06:37:49.872Z,96789.75
2018-09-24T06:40:24.678Z,96803.03
2018-09-24T06:42:59.875Z,96805.86
2018-09-24T06:45:35.420Z,96810.34
2018-09-24T06:48:10.515Z,96820.13
2018-09-24T06:50:45.330Z,96827.41
2018-09-24T06:53:20.124Z,96832.60
2018-09-24T06:55:54.878Z,96837.13
2018-09-24T06:58:30.858Z,96848.64
2018-09-24T07:01:06.708Z,96850.94
2018-09-24T07:03:42.110Z,96851.84
2018-09-24T07:06:16.658Z,96866.98
2018-09-24T07:08:51.388Z,96863.50
2018-09-24T07:11:26.079Z,96874.65
2018-09-24T07:14:01.085Z,96873.31
2018-09-24T07:16:36.198Z,96881.18
2018-09-24T07:19:12.097Z,96877.13
2018-09-24T07:21:46.931Z,96885.02
2018-09-24T07:24:21.514Z,96889.88
2018-09-24T07:26:56.159Z,96887.69
2018-09-24T07:29:31.297Z,96901.47
2018-09-24T07:32:07.613Z,96903.91
2018-09-24T07:34:42.756Z,96899.45
2018-09-24T07:37:17.694Z,96906.67
2018-09-24T07:39:52.308Z,96910.69
2018-09-24T07:42:26.838Z,96916.88
2018-09-24T07:45:02.746Z,96922.42
2018-09-24T07:47:38.121Z,96930.05
2018-09-24T07:50:13.107Z,96934.22
2018-09-24T07:52:47.549Z,96938.08
2018-09-24T07:55:22.117Z,96942.42
2018-09-24T07:57:56.823Z,96941.78
2018-09-24T08:00:33.060Z,96942.09
2018-09-24T08:03:08.688Z,96941.27
2018-09-24T08:05:43.777Z,96943.34
2018-09-24T08:08:18.468Z,96950.06
2018-09-24T08:10:53.273Z,96962.78
2018-09-24T08:13:28.089Z,96961.70
2018-09-24T08:16:02.865Z,96964.27
2018-09-24T08:18:37.954Z,96971.62
2018-09-24T08:21:12.873Z,96978.96
2018-09-24T08:23:47.486Z,96981.73
2018-09-24T08:26:22.231Z,96980.08
2018-09-24T08:28:57.080Z,96984.25
2018-09-24T08:31:32.144Z,96984.19
2018-09-24T08:34:08.099Z,96985.84
2018-09-24T08:36:43.018Z,96991.63
2018-09-24T08:39:18.208Z,96987.77
2018-09-24T08:41:52.801Z,96987.95
2018-09-24T08:44:27.667Z,96991.02
2018-09-24T08:47:03.842Z,96983.17
2018-09-24T08:49:39.670Z,96989.19
2018-09-24T08:52:14.798Z,96982.46
2018-09-24T08:54:49.423Z,96991.91
2018-09-24T08:57:24.453Z,96988.21
2018-09-24T08:59:59.595Z,96992.13
2018-09-24T09:02:34.468Z,96990.12
2018-09-24T09:05:10.357Z,96983.58
2018-09-24T09:07:45.142Z,96999.23
2018-09-24T09:10:19.835Z,96986.62
2018-09-24T09:12:54.364Z,96988.96
2018-09-24T09:15:29.614Z,97000.65
2018-09-24T09:18:04.891Z,97005.23
2018-09-24T09:20:40.123Z,97002.83
2018-09-24T09:23:15.442Z,96997.70
2018-09-24T09:25:50.186Z,97011.72
2018-09-24T09:28:24.779Z,97013.13
2018-09-24T09:30:59.716Z,97018.72
2018-09-24T09:33:34.615Z,97031.62
2018-09-24T09:36:10.255Z,97029.05
2018-09-24T09:38:45.335Z,97030.21
2018-09-24T09:41:19.910Z,97026.61
2018-09-24T09:43:54.515Z,97035.45
2018-09-24T09:46:29.172Z,97027.80
2018-09-24T09:49:04.122Z,97023.36
2018-09-24T09:51:40.450Z,97019.58
2018-09-24T09:54:15.334Z,97024.45
2018-09-24T09:56:50.325Z,97019.55
2018-09-24T09:59:25.079Z,97012.13
2018-09-24T10:02:00.086Z,97019.17
2018-09-24T10:04:34.965Z,97015.16
2018-09-24T10:07:10.253Z,97009.17
2018-09-24T10:09:45.393Z,97009.20
2018-09-24T10:12:20.083Z,97014.55
2018-09-24T10:14:54.779Z,97011.63
2018-09-24T10:17:29.373Z,97013.00
2018-09-24T10:20:04.318Z,97021.63
2018-09-24T10:22:40.040Z,97013.54
2018-09-24T10:25:14.813Z,97032.98
2018-09-24T10:27:49.566Z,97023.30
2018-09-24T10:30:24.145Z,97037.20
2018-09-24T10:32:59.035Z,97028.84
2018-09-24T10:35:33.715Z,97027.90
2018-09-24T10:38:10.106Z,97032.15
2018-09-24T10:40:45.302Z,97039.50
2018-09-24T10:43:20.032Z,97051.55
2018-09-24T10:45:54.674Z,97049.36
2018-09-24T10:48:29.614Z,97045.84
2018-09-24T10:51:04.709Z,97043.59
2018-09-24T10:53:40.144Z,97039.97
2018-09-24T10:56:15.256Z,97038.39
2018-09-24T10:58:49.904Z,97032.66
2018-09-24T11:01:24.380Z,97030.56
2018-09-24T11:03:59.209Z,97024.35
2018-09-24T11:06:34.003Z,97024.89
2018-09-24T11:09:10.912Z,97034.27
2018-09-24T11:11:46.447Z,97034.68
2018-09-24T11:14:21.006Z,97030.48
2018-09-24T11:16:55.799Z,97019.84
2018-09-24T11:19:31.707Z,97009.67
2018-09-24T11:22:08.429Z,97012.57
2018-09-24T11:24:43.629Z,97014.61
2018-09-24T11:27:18.188Z,97011.60
2018-09-24T11:29:52.950Z,97019.92
2018-09-24T11:32:27.460Z,97019.42
2018-09-24T11:35:02.525Z,97020.78
2018-09-24T11:37:38.121Z,97012.97
2018-09-24T11:40:13.269Z,97014.63
2018-09-24T11:42:47.970Z,97019.13
2018-09-24T11:45:22.510Z,97013.48
2018-09-24T11:47:56.995Z,97015.15
2018-09-24T11:50:31.669Z,97028.59
2018-09-24T11:53:07.192Z,97020.83
2018-09-24T11:55:42.040Z,97016.40
2018-09-24T11:58:17.320Z,97029.25
2018-09-24T12:00:52.017Z,97027.73
2018-09-24T12:03:26.736Z,97026.31
2018-09-24T12:06:01.531Z,97026.53
2018-09-24T12:08:36.933Z,97020.02
2018-09-24T12:11:12.220Z,97026.64
2018-09-24T12:13:47.290Z,97021.86
2018-09-24T12:16:21.941Z,97026.73
2018-09-24T12:18:56.472Z,97026.87
2018-09-24T12:21:31.190Z,97034.42
2018-09-24T12:24:06.508Z,97033.38
2018-09-24T12:26:41.710Z,97030.91
2018-09-24T12:29:16.400Z,97032.42
2018-09-24T12:31:50.902Z,97033.02
2018-09-24T12:34:25.588Z,97031.77
2018-09-24T12:37:00.877Z,97032.95
2018-09-24T12:39:37.082Z,97039.73
2018-09-24T12:42:12.213Z,97035.64
2018-09-24T12:44:47.244Z,97033.97
2018-09-24T12:47:21.892Z,97024.12
2018-09-24T12:49:56.500Z,97021.78
2018-09-24T12:52:31.414Z,97018.93
2018-09-24T12:55:07.320Z,97020.94
2018-09-24T12:57:42.322Z,97016.52
2018-09-24T13:00:17.348Z,97017.31
2018-09-24T13:02:51.970Z,97019.03
2018-09-24T13:05:26.637Z,97017.02
2018-09-24T13:08:01.448Z,97022.33
2018-09-24T13:10:37.722Z,97023.11
2018-09-24T13:13:12.889Z,97013.34
2018-09-24T13:15:47.835Z,97006.23
2018-09-24T13:18:22.365Z,97005.64
2018-09-24T13:20:56.901Z,97003.70
2018-09-24T13:23:31.449Z,97002.88
2018-09-24T13:26:06.885Z,97007.05
2018-09-24T13:28:42.229Z,97002.60
2018-09-24T13:31:17.273Z,96993.66
2018-09-24T13:33:52.014Z,97000.88
2018-09-24T13:36:26.838Z,97002.11
2018-09-24T13:39:01.708Z,97010.17
2018-09-24T13:41:36.984Z,97016.30
2018-09-24T13:44:12.221Z,97012.88
2018-09-24T13:46:46.895Z,97003.22
2018-09-24T13:49:21.580Z,97004.69
2018-09-24T13:51:56.196Z,97007.44
2018-09-24T13:54:31.060Z,97011.02
2018-09-24T13:57:06.613Z,97006.80
2018-09-24T13:59:41.621Z,97011.05
2018-09-24T14:02:16.494Z,97010.19
2018-09-24T14:04:51.371Z,97007.50
2018-09-24T14:07:25.929Z,97002.44
2018-09-24T14:10:00.804Z,96999.88
2018-09-24T14:12:35.936Z,97001.35
2018-09-24T14:15:11.070Z,96998.37
2018-09-24T14:17:46.224Z,96999.63
2018-09-24T14:20:20.848Z,96998.33
2018-09-24T14:22:55.437Z,97000.31
2018-09-24T14:25:30.157Z,96995.32
2018-09-24T14:28:05.453Z,96986.52
2018-09-24T14:30:40.811Z,96991.52
2018-09-24T14:33:16.040Z,96992.66
2018-09-24T14:35:50.677Z,96992.27
2018-09-24T14:38:25.105Z,97002.20
2018-09-24T14:41:00.147Z,96989.97
2018-09-24T14:43:35.574Z,96992.32
2018-09-24T14:46:10.492Z,96988.94
2018-09-24T14:48:45.806Z,96990.33
2018-09-24T14:51:20.434Z,96987.32
2018-09-24T14:53:55.094Z,96988.30
2018-09-24T14:56:30.373Z,96986.95
2018-09-24T14:59:05.785Z,96998.08
2018-09-24T15:01:41.202Z,96993.94
2018-09-24T15:04:15.740Z,96990.66
2018-09-24T15:06:50.486Z,96994.67
2018-09-24T15:09:25.106Z,96994.62
2018-09-24T15:11:59.716Z,96998.62
2018-09-24T15:14:34.564Z,96990.27
2018-09-24T15:17:10.082Z,96990.64
2018-09-24T15:19:45.159Z,96999.20
2018-09-24T15:22:19.682Z,96997.97
2018-09-24T15:24:54.296Z,96993.30
2018-09-24T15:27:29.191Z,96993.55
2018-09-24T15:30:04.105Z,96995.14
2018-09-24T15:32:40.064Z,96997.78
2018-09-24T15:35:15.173Z,97006.76
2018-09-24T15:37:49.710Z,97000.23
2018-09-24T15:40:24.300Z,97001.83
2018-09-24T15:42:59.357Z,96996.39
2018-09-24T15:45:34.333Z,97000.92
2018-09-24T15:48:10.385Z,97004.02
2018-09-24T15:50:45.366Z,97009.38
2018-09-24T15:53:20.648Z,97007.80
2018-09-24T15:55:55.177Z,97009.53
2018-09-24T15:58:30.271Z,97006.35
2018-09-24T16:01:05.000Z,97009.03
2018-09-24T16:03:40.335Z,97003.70
2018-09-24T16:06:15.061Z,97008.69
2018-09-24T16:08:49.627Z,97011.56
2018-09-24T16:11:24.318Z,97012.39
2018-09-24T16:13:59.188Z,97020.36
2018-09-24T16:16:34.578Z,97018.58
2018-09-24T16:19:09.952Z,97021.64
2018-09-24T16:21:44.993Z,97026.77
2018-09-24T16:24:19.626Z,97026.02
2018-09-24T16:26:54.217Z,97031.80
2018-09-24T16:29:28.900Z,97035.19
2018-09-24T16:32:03.483Z,97034.73
2018-09-24T16:34:38.904Z,97036.70
2018-09-24T16:37:13.902Z,97044.18
2018-09-24T16:39:48.443Z,97043.94
2018-09-24T16:42:23.032Z,97045.80
2018-09-24T16:44:57.625Z,97050.30
2018-09-24T16:47:32.602Z,97053.61
2018-09-24T16:50:08.210Z,97052.41
2018-09-24T16:52:43.331Z,97061.42
2018-09-24T16:55:17.901Z,97060.34
2018-09-24T16:57:52.660Z,97067.53
2018-09-24T17:00:27.380Z,97070.48
2018-09-24T17:03:02.246Z,97072.41
2018-09-24T17:05:37.463Z,97070.66
2018-09-24T17:08:12.243Z,97072.48
2018-09-24T17:10:46.763Z,97079.99
2018-09-24T17:13:21.696Z,97073.48
2018-09-24T17:15:56.606Z,97076.63
2018-09-24T17:18:31.834Z,97081.50
2018-09-24T17:21:06.794Z,97088.61
2018-09-24T17:23:42.020Z,97084.73
2018-09-24T17:26:17.402Z,97098.63
2018-09-24T17:28:52.152Z,97098.94
2018-09-24T17:31:27.081Z,97107.23
2018-09-24T17:34:02.569Z,97109.07
2018-09-24T17:36:37.236Z,97106.09
2018-09-24T17:39:14.673Z,97102.27
2018-09-24T17:41:49.766Z,97107.59
2018-09-24T17:44:24.698Z,97112.41
2018-09-24T17:47:00.137Z,97109.14
2018-09-24T17:49:36.368Z,97120.18
2018-09-24T17:52:11.181Z,97119.83
2018-09-24T17:54:45.932Z,97118.72
2018-09-24T17:57:20.529Z,97122.06
2018-09-24T17:59:55.251Z,97128.25
2018-09-24T18:02:30.826Z,97134.05
2018-09-24T18:05:05.593Z,97130.56
2018-09-24T18:07:40.916Z,97139.11
2018-09-24T18:10:15.703Z,97144.70
2018-09-24T18:12:50.653Z,97143.44
2018-09-24T18:15:25.587Z,97147.64
2018-09-24T18:18:00.735Z,97141.41
2018-09-24T18:20:35.471Z,97148.40
2018-09-24T18:23:10.194Z,97145.55
2018-09-24T18:25:44.833Z,97156.09
2018-09-24T18:28:19.338Z,97155.72
2018-09-24T18:30:54.244Z,97157.72
2018-09-24T18:33:29.182Z,97158.91
2018-09-24T18:36:03.996Z,97163.53
2018-09-24T18:38:38.582Z,97168.85
2018-09-24T18:41:13.407Z,97167.52
2018-09-24T18:43:48.261Z,97172.04
2018-09-24T18:46:23.110Z,97177.05
2018-09-24T18:48:57.774Z,97173.92
2018-09-24T18:51:32.409Z,97174.66
2018-09-24T18:54:06.969Z,97184.64
2018-09-24T18:56:41.652Z,97181.23
2018-09-24T18:59:16.390Z,97181.41
2018-09-24T19:01:50.904Z,97183.80
2018-09-24T19:04:25.450Z,97185.28
2018-09-24T19:07:00.286Z,97185.00
2018-09-24T19:09:35.031Z,97190.22
2018-09-24T19:12:09.582Z,97191.38
2018-09-24T19:14:44.182Z,97180.58
2018-09-24T19:17:18.962Z,97185.33
2018-09-24T19:19:53.668Z,97188.47
2018-09-24T19:22:28.881Z,97186.79
2018-09-24T19:25:03.919Z,97188.05
2018-09-24T19:27:38.563Z,97191.38
2018-09-24T19:30:13.210Z,97195.30
2018-09-24T19:32:47.710Z,97189.20
2018-09-24T19:35:22.539Z,97195.94
2018-09-24T19:37:56.989Z,97202.17
2018-09-24T19:40:31.530Z,97203.97
2018-09-24T19:43:06.215Z,97203.55
2018-09-24T19:45:40.656Z,97214.44
2018-09-24T19:48:15.575Z,97201.56
2018-09-24T19:50:50.267Z,97211.81
2018-09-24T19:53:24.839Z,97208.81
2018-09-24T19:55:59.584Z,97213.48
2018-09-24T19:58:34.163Z,97208.17
2018-09-24T20:01:08.942Z,97216.24
2018-09-24T20:03:43.600Z,97216.98
2018-09-24T20:06:18.268Z,97217.20
2018-09-24T20:08:52.916Z,97217.12
2018-09-24T20:11:27.498Z,97220.34
2018-09-24T20:14:02.149Z,97217.12
2018-09-24T20:16:37.079Z,97220.95
2018-09-24T20:19:14.028Z,97224.91
2018-09-24T20:21:48.814Z,97223.80
2018-09-24T20:24:23.422Z,97224.95
2018-09-24T20:26:58.015Z,97225.14
2018-09-24T20:29:32.756Z,97228.27
2018-09-24T20:32:07.837Z,97232.09
2018-09-24T20:34:43.939Z,97230.62
2018-09-24T20:37:18.900Z,97230.34
2018-09-24T20:39:53.398Z,97235.08
2018-09-24T20:42:27.940Z,97231.70
2018-09-24T20:45:02.486Z,97230.41
2018-09-24T20:47:37.257Z,97232.47
2018-09-24T20:50:19.191Z,97233.17
2018-09-24T20:52:54.082Z,97235.24
2018-09-24T20:55:28.633Z,97243.42
2018-09-24T20:58:03.384Z,97242.37
2018-09-24T21:00:38.225Z,97245.37
2018-09-24T21:03:14.295Z,97245.75
2018-09-24T21:05:48.894Z,97251.41
2018-09-24T21:08:23.550Z,97255.27
2018-09-24T21:10:58.158Z,97254.16
2018-09-24T21:13:32.808Z,97251.92
2018-09-24T21:16:07.727Z,97259.47
2018-09-24T21:18:43.011Z,97257.45
2018-09-24T21:21:18.277Z,97255.58
2018-09-24T21:23:53.125Z,97259.47
2018-09-24T21:26:27.754Z,97257.08
2018-09-24T21:29:02.348Z,97268.27
2018-09-24T21:31:37.001Z,97263.95
2018-09-24T21:34:12.150Z,97261.91
2018-09-24T21:36:47.310Z,97265.63
2018-09-24T21:39:22.228Z,97267.45
2018-09-24T21:41:56.991Z,97271.80
2018-09-24T21:44:31.682Z,97267.41
2018-09-24T21:47:06.611Z,97271.11
2018-09-24T21:49:41.378Z,97268.52
2018-09-24T21:52:16.300Z,97272.63
2018-09-24T21:54:51.623Z,97274.26
2018-09-24T21:57:26.409Z,97275.94
2018-09-24T22:00:01.017Z,97278.60
2018-09-24T22:02:36.923Z,97280.45
2018-09-24T22:05:11.828Z,97284.58
2018-09-24T22:07:46.679Z,97282.63
2018-09-24T22:10:21.637Z,97283.31
2018-09-24T22:12:56.311Z,97286.31
2018-09-24T22:15:31.088Z,97285.59
2018-09-24T22:18:06.074Z,97289.10
2018-09-24T22:20:40.805Z,97292.18
2018-09-24T22:23:15.867Z,97289.73
2018-09-24T22:25:50.601Z,97289.85
2018-09-24T22:28:25.022Z,97294.59
2018-09-24T22:30:59.534Z,97293.27
2018-09-24T22:33:34.117Z,97289.80
2018-09-24T22:36:08.977Z,97286.30
2018-09-24T22:38:44.366Z,97287.31
2018-09-24T22:41:19.364Z,97285.36
2018-09-24T22:43:53.965Z,97278.69
2018-09-24T22:46:28.760Z,97284.75
2018-09-24T22:49:03.346Z,97282.19
2018-09-24T22:51:38.038Z,97284.64
2018-09-24T22:54:12.794Z,97288.65
2018-09-24T22:56:47.818Z,97283.20
2018-09-24T22:59:22.570Z,97290.41
2018-09-24T23:01:57.155Z,97291.75
2018-09-24T23:04:31.830Z,97284.34
2018-09-24T23:07:06.962Z,97296.72
2018-09-24T23:09:41.755Z,97289.14
2018-09-24T23:12:16.680Z,97294.27
2018-09-24T23:14:51.456Z,97287.52
2018-09-24T23:17:25.982Z,97294.06
2018-09-24T23:20:00.592Z,97294.97
2018-09-24T23:22:35.389Z,97289.94
2018-09-24T23:25:10.108Z,97297.33
2018-09-24T23:27:45.429Z,97300.39
2018-09-24T23:30:20.087Z,97302.42
2018-09-24T23:32:54.681Z,97301.70
2018-09-24T23:35:29.231Z,97310.53
2018-09-24T23:38:03.799Z,97316.17
2018-09-24T23:40:38.430Z,97305.59
2018-09-24T23:43:13.651Z,97308.47
2018-09-24T23:45:48.474Z,97310.94
2018-09-24T23:48:23.110Z,97313.06
2018-09-24T23:50:57.716Z,97314.02
2018-09-24T23:53:32.562Z,97318.73
2018-09-24T23:56:10.391Z,97316.47
2018-09-24T23:58:45.602Z,97316.97
